sensor_id;sensor_type;location;lat;lon;timestamp;temperature;humidity
19928;DHT22;10126;50.876;4.470;2023-11-18T00:01:37;7.30;99.90
19928;DHT22;10126;50.876;4.470;2023-11-18T00:03:37;7.40;99.90
19928;DHT22;10126;50.876;4.470;2023-11-18T00:05:38;7.40;99.90
19928;DHT22;10126;50.876;4.470;2023-11-18T00:07:39;7.30;99.90
19928;DHT22;10126;50.876;4.470;2023-11-18T00:09:40;7.30;99.90
19928;DHT22;10126;50.876;4.470;2023-11-18T00:11:43;7.30;99.90
19928;DHT22;10126;50.876;4.470;2023-11-18T00:13:44;7.40;99.90
19928;DHT22;10126;50.876;4.470;2023-11-18T00:15:45;7.40;99.90
19928;DHT22;10126;50.876;4.470;2023-11-18T00:17:47;7.30;99.90
19928;DHT22;10126;50.876;4.470;2023-11-18T00:19:48;7.40;99.90
19928;DHT22;10126;50.876;4.470;2023-11-18T00:21:49;7.30;99.90
19928;DHT22;10126;50.876;4.470;2023-11-18T00:23:49;7.40;99.90
19928;DHT22;10126;50.876;4.470;2023-11-18T00:25:50;7.50;99.90
19928;DHT22;10126;50.876;4.470;2023-11-18T00:27:53;7.40;99.90
19928;DHT22;10126;50.876;4.470;2023-11-18T00:29:54;7.40;99.90
19928;DHT22;10126;50.876;4.470;2023-11-18T00:31:55;7.40;99.90
19928;DHT22;10126;50.876;4.470;2023-11-18T00:33:55;7.40;99.90
19928;DHT22;10126;50.876;4.470;2023-11-18T00:35:56;7.30;99.90
19928;DHT22;10126;50.876;4.470;2023-11-18T00:37:57;7.30;99.90
19928;DHT22;10126;50.876;4.470;2023-11-18T00:39:58;7.20;99.90
19928;DHT22;10126;50.876;4.470;2023-11-18T00:41:59;7.30;99.90
19928;DHT22;10126;50.876;4.470;2023-11-18T00:44:00;7.30;99.90
19928;DHT22;10126;50.876;4.470;2023-11-18T00:46:01;7.20;99.90
19928;DHT22;10126;50.876;4.470;2023-11-18T00:48:03;7.10;99.90
19928;DHT22;10126;50.876;4.470;2023-11-18T00:50:05;7.20;99.90
19928;DHT22;10126;50.876;4.470;2023-11-18T00:52:08;7.10;99.90
19928;DHT22;10126;50.876;4.470;2023-11-18T00:54:09;7.10;99.90
19928;DHT22;10126;50.876;4.470;2023-11-18T00:56:15;7.20;99.90
19928;DHT22;10126;50.876;4.470;2023-11-18T00:58:16;7.10;99.90
19928;DHT22;10126;50.876;4.470;2023-11-18T01:00:16;7.10;99.90
19928;DHT22;10126;50.876;4.470;2023-11-18T01:02:21;7.10;99.90
19928;DHT22;10126;50.876;4.470;2023-11-18T01:04:22;7.00;99.90
19928;DHT22;10126;50.876;4.470;2023-11-18T01:06:23;7.00;99.90
19928;DHT22;10126;50.876;4.470;2023-11-18T01:08:23;7.10;99.90
19928;DHT22;10126;50.876;4.470;2023-11-18T01:10:25;7.20;99.90
19928;DHT22;10126;50.876;4.470;2023-11-18T01:12:25;7.30;99.90
19928;DHT22;10126;50.876;4.470;2023-11-18T01:14:26;7.40;99.90
19928;DHT22;10126;50.876;4.470;2023-11-18T01:16:27;7.40;99.90
19928;DHT22;10126;50.876;4.470;2023-11-18T01:18:28;7.40;99.90
19928;DHT22;10126;50.876;4.470;2023-11-18T01:20:29;7.30;99.90
19928;DHT22;10126;50.876;4.470;2023-11-18T01:22:29;7.10;99.90
19928;DHT22;10126;50.876;4.470;2023-11-18T01:24:30;7.10;99.90
19928;DHT22;10126;50.876;4.470;2023-11-18T01:26:31;7.20;99.90
19928;DHT22;10126;50.876;4.470;2023-11-18T01:28:34;7.20;99.90
19928;DHT22;10126;50.876;4.470;2023-11-18T01:30:37;7.20;99.90
19928;DHT22;10126;50.876;4.470;2023-11-18T01:32:38;7.20;99.90
19928;DHT22;10126;50.876;4.470;2023-11-18T01:34:40;7.30;99.90
19928;DHT22;10126;50.876;4.470;2023-11-18T01:36:41;7.30;99.90
19928;DHT22;10126;50.876;4.470;2023-11-18T01:38:44;7.40;99.90
19928;DHT22;10126;50.876;4.470;2023-11-18T01:40:44;7.30;99.90
19928;DHT22;10126;50.876;4.470;2023-11-18T01:42:45;7.40;99.90
19928;DHT22;10126;50.876;4.470;2023-11-18T01:44:46;7.40;99.90
19928;DHT22;10126;50.876;4.470;2023-11-18T01:46:47;7.30;99.90
19928;DHT22;10126;50.876;4.470;2023-11-18T01:48:48;7.20;99.90
19928;DHT22;10126;50.876;4.470;2023-11-18T01:50:49;7.20;99.90
19928;DHT22;10126;50.876;4.470;2023-11-18T01:52:51;7.30;99.90
19928;DHT22;10126;50.876;4.470;2023-11-18T01:54:54;7.30;99.90
19928;DHT22;10126;50.876;4.470;2023-11-18T01:56:55;7.40;99.90
19928;DHT22;10126;50.876;4.470;2023-11-18T01:58:56;7.40;99.90
19928;DHT22;10126;50.876;4.470;2023-11-18T02:00:59;7.30;99.90
19928;DHT22;10126;50.876;4.470;2023-11-18T02:03:00;7.30;99.90
19928;DHT22;10126;50.876;4.470;2023-11-18T02:05:00;7.20;99.90
19928;DHT22;10126;50.876;4.470;2023-11-18T02:07:06;7.20;99.90
19928;DHT22;10126;50.876;4.470;2023-11-18T02:09:09;7.20;99.90
19928;DHT22;10126;50.876;4.470;2023-11-18T02:11:36;7.00;99.90
19928;DHT22;10126;50.876;4.470;2023-11-18T02:13:43;7.10;99.90
19928;DHT22;10126;50.876;4.470;2023-11-18T02:15:45;7.00;99.90
19928;DHT22;10126;50.876;4.470;2023-11-18T02:17:47;7.00;99.90
19928;DHT22;10126;50.876;4.470;2023-11-18T02:19:49;7.00;99.90
19928;DHT22;10126;50.876;4.470;2023-11-18T02:21:52;6.90;99.90
19928;DHT22;10126;50.876;4.470;2023-11-18T02:23:54;7.00;99.90
19928;DHT22;10126;50.876;4.470;2023-11-18T02:25:55;7.10;99.90
19928;DHT22;10126;50.876;4.470;2023-11-18T02:27:56;7.10;99.90
19928;DHT22;10126;50.876;4.470;2023-11-18T02:29:57;7.10;99.90
19928;DHT22;10126;50.876;4.470;2023-11-18T02:32:03;7.10;99.90
19928;DHT22;10126;50.876;4.470;2023-11-18T02:34:11;7.00;99.90
19928;DHT22;10126;50.876;4.470;2023-11-18T02:36:25;7.20;99.90
19928;DHT22;10126;50.876;4.470;2023-11-18T02:38:30;7.30;99.90
19928;DHT22;10126;50.876;4.470;2023-11-18T02:40:35;7.50;99.90
19928;DHT22;10126;50.876;4.470;2023-11-18T02:42:36;7.50;99.90
19928;DHT22;10126;50.876;4.470;2023-11-18T02:44:38;7.50;99.90
19928;DHT22;10126;50.876;4.470;2023-11-18T02:46:40;7.40;99.90
19928;DHT22;10126;50.876;4.470;2023-11-18T02:48:43;7.40;99.90
19928;DHT22;10126;50.876;4.470;2023-11-18T02:50:44;7.40;99.90
19928;DHT22;10126;50.876;4.470;2023-11-18T02:52:44;7.40;99.90
19928;DHT22;10126;50.876;4.470;2023-11-18T02:54:45;7.30;99.90
19928;DHT22;10126;50.876;4.470;2023-11-18T02:56:46;7.40;99.90
19928;DHT22;10126;50.876;4.470;2023-11-18T02:58:46;7.40;99.90
19928;DHT22;10126;50.876;4.470;2023-11-18T03:00:47;7.30;99.90
19928;DHT22;10126;50.876;4.470;2023-11-18T03:02:49;7.30;99.90
19928;DHT22;10126;50.876;4.470;2023-11-18T03:04:50;7.30;99.90
19928;DHT22;10126;50.876;4.470;2023-11-18T03:06:51;7.30;99.90
19928;DHT22;10126;50.876;4.470;2023-11-18T03:08:52;7.40;99.90
19928;DHT22;10126;50.876;4.470;2023-11-18T03:10:53;7.40;99.90
19928;DHT22;10126;50.876;4.470;2023-11-18T03:12:55;7.30;99.90
19928;DHT22;10126;50.876;4.470;2023-11-18T03:14:55;7.40;99.90
19928;DHT22;10126;50.876;4.470;2023-11-18T03:16:57;7.40;99.90
19928;DHT22;10126;50.876;4.470;2023-11-18T03:18:58;7.50;99.90
19928;DHT22;10126;50.876;4.470;2023-11-18T03:20:59;7.60;99.90
19928;DHT22;10126;50.876;4.470;2023-11-18T03:23:00;7.70;99.90
19928;DHT22;10126;50.876;4.470;2023-11-18T03:25:02;7.80;99.90
19928;DHT22;10126;50.876;4.470;2023-11-18T03:27:02;7.80;99.90
19928;DHT22;10126;50.876;4.470;2023-11-18T03:29:03;7.70;99.90
19928;DHT22;10126;50.876;4.470;2023-11-18T03:31:04;7.80;99.90
19928;DHT22;10126;50.876;4.470;2023-11-18T03:33:05;7.80;99.90
19928;DHT22;10126;50.876;4.470;2023-11-18T03:35:07;7.80;99.90
19928;DHT22;10126;50.876;4.470;2023-11-18T03:37:09;7.70;99.90
19928;DHT22;10126;50.876;4.470;2023-11-18T03:39:09;7.70;99.90
19928;DHT22;10126;50.876;4.470;2023-11-18T03:41:11;7.70;99.90
19928;DHT22;10126;50.876;4.470;2023-11-18T03:43:13;7.60;99.90
19928;DHT22;10126;50.876;4.470;2023-11-18T03:45:14;7.60;99.90
19928;DHT22;10126;50.876;4.470;2023-11-18T03:47:18;7.60;99.90
19928;DHT22;10126;50.876;4.470;2023-11-18T03:49:19;7.70;99.90
19928;DHT22;10126;50.876;4.470;2023-11-18T03:51:21;7.80;99.90
19928;DHT22;10126;50.876;4.470;2023-11-18T03:53:21;7.80;99.90
19928;DHT22;10126;50.876;4.470;2023-11-18T03:55:22;7.80;99.90
19928;DHT22;10126;50.876;4.470;2023-11-18T03:57:23;7.80;99.90
19928;DHT22;10126;50.876;4.470;2023-11-18T03:59:23;7.80;99.90
19928;DHT22;10126;50.876;4.470;2023-11-18T04:01:25;7.90;99.90
19928;DHT22;10126;50.876;4.470;2023-11-18T04:03:29;7.80;99.90
19928;DHT22;10126;50.876;4.470;2023-11-18T04:05:29;7.90;99.90
19928;DHT22;10126;50.876;4.470;2023-11-18T04:07:30;7.90;99.90
19928;DHT22;10126;50.876;4.470;2023-11-18T04:09:31;7.80;99.90
19928;DHT22;10126;50.876;4.470;2023-11-18T04:11:32;7.80;99.90
19928;DHT22;10126;50.876;4.470;2023-11-18T04:13:33;7.80;99.90
19928;DHT22;10126;50.876;4.470;2023-11-18T04:15:33;7.70;99.90
19928;DHT22;10126;50.876;4.470;2023-11-18T04:17:35;7.70;99.90
19928;DHT22;10126;50.876;4.470;2023-11-18T04:19:36;7.70;99.90
19928;DHT22;10126;50.876;4.470;2023-11-18T04:21:37;7.90;99.90
19928;DHT22;10126;50.876;4.470;2023-11-18T04:23:39;7.90;99.90
19928;DHT22;10126;50.876;4.470;2023-11-18T04:25:40;8.00;99.90
19928;DHT22;10126;50.876;4.470;2023-11-18T04:27:41;7.90;99.90
19928;DHT22;10126;50.876;4.470;2023-11-18T04:29:41;7.80;99.90
19928;DHT22;10126;50.876;4.470;2023-11-18T04:31:42;7.80;99.90
19928;DHT22;10126;50.876;4.470;2023-11-18T04:33:43;7.70;99.90
19928;DHT22;10126;50.876;4.470;2023-11-18T04:35:46;7.70;99.90
19928;DHT22;10126;50.876;4.470;2023-11-18T04:37:47;7.70;99.90
19928;DHT22;10126;50.876;4.470;2023-11-18T04:39:47;7.70;99.90
19928;DHT22;10126;50.876;4.470;2023-11-18T04:41:48;7.80;99.90
19928;DHT22;10126;50.876;4.470;2023-11-18T04:43:49;7.80;99.90
19928;DHT22;10126;50.876;4.470;2023-11-18T04:45:50;7.80;99.90
19928;DHT22;10126;50.876;4.470;2023-11-18T04:47:51;7.80;99.90
19928;DHT22;10126;50.876;4.470;2023-11-18T04:49:52;7.90;99.90
19928;DHT22;10126;50.876;4.470;2023-11-18T04:51:52;8.00;99.90
19928;DHT22;10126;50.876;4.470;2023-11-18T04:53:53;8.10;99.90
19928;DHT22;10126;50.876;4.470;2023-11-18T04:55:54;8.30;99.90
19928;DHT22;10126;50.876;4.470;2023-11-18T04:57:55;8.30;99.90
19928;DHT22;10126;50.876;4.470;2023-11-18T04:59:55;8.40;99.90
19928;DHT22;10126;50.876;4.470;2023-11-18T05:01:56;8.50;99.90
19928;DHT22;10126;50.876;4.470;2023-11-18T05:03:57;8.40;99.90
19928;DHT22;10126;50.876;4.470;2023-11-18T05:05:58;8.50;99.90
19928;DHT22;10126;50.876;4.470;2023-11-18T05:07:58;8.50;99.90
19928;DHT22;10126;50.876;4.470;2023-11-18T05:09:59;8.50;99.90
19928;DHT22;10126;50.876;4.470;2023-11-18T05:12:00;8.50;99.90
19928;DHT22;10126;50.876;4.470;2023-11-18T05:14:01;8.60;99.90
19928;DHT22;10126;50.876;4.470;2023-11-18T05:16:04;8.50;99.90
19928;DHT22;10126;50.876;4.470;2023-11-18T05:18:04;8.60;99.90
19928;DHT22;10126;50.876;4.470;2023-11-18T05:20:08;8.70;99.90
19928;DHT22;10126;50.876;4.470;2023-11-18T05:22:11;8.60;99.90
19928;DHT22;10126;50.876;4.470;2023-11-18T05:24:11;8.60;99.90
19928;DHT22;10126;50.876;4.470;2023-11-18T05:26:12;8.50;99.90
19928;DHT22;10126;50.876;4.470;2023-11-18T05:28:16;8.40;99.90
19928;DHT22;10126;50.876;4.470;2023-11-18T05:30:16;8.40;99.90
19928;DHT22;10126;50.876;4.470;2023-11-18T05:32:18;8.60;99.90
19928;DHT22;10126;50.876;4.470;2023-11-18T05:34:21;8.60;99.90
19928;DHT22;10126;50.876;4.470;2023-11-18T05:36:21;8.50;99.90
19928;DHT22;10126;50.876;4.470;2023-11-18T05:38:27;8.40;99.90
19928;DHT22;10126;50.876;4.470;2023-11-18T05:40:32;8.50;99.90
19928;DHT22;10126;50.876;4.470;2023-11-18T05:42:34;8.50;99.90
19928;DHT22;10126;50.876;4.470;2023-11-18T05:44:38;8.40;99.90
19928;DHT22;10126;50.876;4.470;2023-11-18T05:46:39;8.40;99.90
19928;DHT22;10126;50.876;4.470;2023-11-18T05:48:43;8.40;99.90
19928;DHT22;10126;50.876;4.470;2023-11-18T05:50:44;8.40;99.90
19928;DHT22;10126;50.876;4.470;2023-11-18T05:52:45;8.40;99.90
19928;DHT22;10126;50.876;4.470;2023-11-18T05:54:45;8.40;99.90
19928;DHT22;10126;50.876;4.470;2023-11-18T05:56:47;8.40;99.90
19928;DHT22;10126;50.876;4.470;2023-11-18T05:58:48;8.40;99.90
19928;DHT22;10126;50.876;4.470;2023-11-18T06:00:49;8.40;99.90
19928;DHT22;10126;50.876;4.470;2023-11-18T06:02:50;8.40;99.90
19928;DHT22;10126;50.876;4.470;2023-11-18T06:04:50;8.40;99.90
19928;DHT22;10126;50.876;4.470;2023-11-18T06:06:51;8.50;99.90
19928;DHT22;10126;50.876;4.470;2023-11-18T06:08:52;8.50;99.90
19928;DHT22;10126;50.876;4.470;2023-11-18T06:10:53;8.40;99.90
19928;DHT22;10126;50.876;4.470;2023-11-18T06:12:56;8.30;99.90
19928;DHT22;10126;50.876;4.470;2023-11-18T06:14:59;8.40;99.90
19928;DHT22;10126;50.876;4.470;2023-11-18T06:16:59;8.40;99.90
19928;DHT22;10126;50.876;4.470;2023-11-18T06:19:00;8.40;99.90
19928;DHT22;10126;50.876;4.470;2023-11-18T06:21:06;8.50;99.90
19928;DHT22;10126;50.876;4.470;2023-11-18T06:23:07;8.50;99.90
19928;DHT22;10126;50.876;4.470;2023-11-18T06:25:07;8.50;99.90
19928;DHT22;10126;50.876;4.470;2023-11-18T06:27:09;8.50;99.90
19928;DHT22;10126;50.876;4.470;2023-11-18T06:29:10;8.50;99.90
19928;DHT22;10126;50.876;4.470;2023-11-18T06:31:11;8.50;99.90
19928;DHT22;10126;50.876;4.470;2023-11-18T06:33:12;8.50;99.90
19928;DHT22;10126;50.876;4.470;2023-11-18T06:35:13;8.50;99.90
19928;DHT22;10126;50.876;4.470;2023-11-18T06:37:15;8.50;99.90
19928;DHT22;10126;50.876;4.470;2023-11-18T06:39:15;8.50;99.90
19928;DHT22;10126;50.876;4.470;2023-11-18T06:41:17;8.50;99.90
19928;DHT22;10126;50.876;4.470;2023-11-18T06:43:19;8.50;99.90
19928;DHT22;10126;50.876;4.470;2023-11-18T06:45:20;8.50;99.90
19928;DHT22;10126;50.876;4.470;2023-11-18T06:47:22;8.50;99.90
19928;DHT22;10126;50.876;4.470;2023-11-18T06:49:23;8.50;99.90
19928;DHT22;10126;50.876;4.470;2023-11-18T06:51:26;8.60;99.90
19928;DHT22;10126;50.876;4.470;2023-11-18T06:53:27;8.60;99.90
19928;DHT22;10126;50.876;4.470;2023-11-18T06:55:28;8.70;99.90
19928;DHT22;10126;50.876;4.470;2023-11-18T06:57:28;8.70;99.90
19928;DHT22;10126;50.876;4.470;2023-11-18T06:59:29;8.70;99.90
19928;DHT22;10126;50.876;4.470;2023-11-18T07:01:30;8.80;99.90
19928;DHT22;10126;50.876;4.470;2023-11-18T07:03:31;8.70;99.90
19928;DHT22;10126;50.876;4.470;2023-11-18T07:05:32;8.70;99.90
19928;DHT22;10126;50.876;4.470;2023-11-18T07:07:33;8.80;99.90
19928;DHT22;10126;50.876;4.470;2023-11-18T07:09:33;8.90;99.90
19928;DHT22;10126;50.876;4.470;2023-11-18T07:11:36;8.90;99.90
19928;DHT22;10126;50.876;4.470;2023-11-18T07:13:36;8.90;99.90
19928;DHT22;10126;50.876;4.470;2023-11-18T07:15:39;8.90;99.90
19928;DHT22;10126;50.876;4.470;2023-11-18T07:17:40;8.90;99.90
19928;DHT22;10126;50.876;4.470;2023-11-18T07:19:41;9.00;99.90
19928;DHT22;10126;50.876;4.470;2023-11-18T07:21:44;9.00;99.90
19928;DHT22;10126;50.876;4.470;2023-11-18T07:23:45;8.90;99.90
19928;DHT22;10126;50.876;4.470;2023-11-18T07:25:46;8.90;99.90
19928;DHT22;10126;50.876;4.470;2023-11-18T07:27:46;8.90;99.90
19928;DHT22;10126;50.876;4.470;2023-11-18T07:29:47;8.90;99.90
19928;DHT22;10126;50.876;4.470;2023-11-18T07:31:47;8.90;99.90
19928;DHT22;10126;50.876;4.470;2023-11-18T07:33:49;8.90;99.90
19928;DHT22;10126;50.876;4.470;2023-11-18T07:35:51;8.90;99.90
19928;DHT22;10126;50.876;4.470;2023-11-18T07:37:52;8.80;99.90
19928;DHT22;10126;50.876;4.470;2023-11-18T07:39:54;8.90;99.90
19928;DHT22;10126;50.876;4.470;2023-11-18T07:41:55;9.00;99.90
19928;DHT22;10126;50.876;4.470;2023-11-18T07:43:59;8.90;99.90
19928;DHT22;10126;50.876;4.470;2023-11-18T07:46:00;8.80;99.90
19928;DHT22;10126;50.876;4.470;2023-11-18T07:48:01;8.80;99.90
19928;DHT22;10126;50.876;4.470;2023-11-18T07:50:01;8.80;99.90
19928;DHT22;10126;50.876;4.470;2023-11-18T07:52:04;9.00;99.90
19928;DHT22;10126;50.876;4.470;2023-11-18T07:54:06;8.90;99.90
19928;DHT22;10126;50.876;4.470;2023-11-18T07:56:07;9.00;99.90
19928;DHT22;10126;50.876;4.470;2023-11-18T07:58:11;9.10;99.90
19928;DHT22;10126;50.876;4.470;2023-11-18T08:00:13;9.00;99.90
19928;DHT22;10126;50.876;4.470;2023-11-18T08:02:15;9.00;99.90
19928;DHT22;10126;50.876;4.470;2023-11-18T08:04:17;9.10;99.90
19928;DHT22;10126;50.876;4.470;2023-11-18T08:06:21;9.00;99.90
19928;DHT22;10126;50.876;4.470;2023-11-18T08:08:21;8.90;99.90
19928;DHT22;10126;50.876;4.470;2023-11-18T08:10:22;8.90;99.90
19928;DHT22;10126;50.876;4.470;2023-11-18T08:12:25;8.90;99.90
19928;DHT22;10126;50.876;4.470;2023-11-18T08:14:25;8.90;99.90
19928;DHT22;10126;50.876;4.470;2023-11-18T08:16:27;8.90;99.90
19928;DHT22;10126;50.876;4.470;2023-11-18T08:18:28;8.90;99.90
19928;DHT22;10126;50.876;4.470;2023-11-18T08:20:31;8.90;99.90
19928;DHT22;10126;50.876;4.470;2023-11-18T08:22:32;9.00;99.90
19928;DHT22;10126;50.876;4.470;2023-11-18T08:24:32;9.20;99.90
19928;DHT22;10126;50.876;4.470;2023-11-18T08:26:36;9.10;99.90
19928;DHT22;10126;50.876;4.470;2023-11-18T08:28:37;9.10;99.90
19928;DHT22;10126;50.876;4.470;2023-11-18T08:30:38;9.20;99.90
19928;DHT22;10126;50.876;4.470;2023-11-18T08:32:40;9.20;99.90
19928;DHT22;10126;50.876;4.470;2023-11-18T08:34:44;9.10;99.90
19928;DHT22;10126;50.876;4.470;2023-11-18T08:36:45;9.20;99.90
19928;DHT22;10126;50.876;4.470;2023-11-18T08:38:45;9.10;99.90
19928;DHT22;10126;50.876;4.470;2023-11-18T08:40:47;9.30;99.90
19928;DHT22;10126;50.876;4.470;2023-11-18T08:42:49;9.40;99.90
19928;DHT22;10126;50.876;4.470;2023-11-18T08:44:50;9.50;99.90
19928;DHT22;10126;50.876;4.470;2023-11-18T08:46:52;9.60;99.90
19928;DHT22;10126;50.876;4.470;2023-11-18T08:48:53;9.80;99.90
19928;DHT22;10126;50.876;4.470;2023-11-18T08:50:56;9.80;99.90
19928;DHT22;10126;50.876;4.470;2023-11-18T08:52:56;9.70;99.90
19928;DHT22;10126;50.876;4.470;2023-11-18T08:55:00;9.70;99.90
19928;DHT22;10126;50.876;4.470;2023-11-18T08:57:21;9.60;99.90
19928;DHT22;10126;50.876;4.470;2023-11-18T08:59:25;9.60;99.90
19928;DHT22;10126;50.876;4.470;2023-11-18T09:01:26;9.60;99.90
19928;DHT22;10126;50.876;4.470;2023-11-18T09:03:28;9.40;99.90
19928;DHT22;10126;50.876;4.470;2023-11-18T09:05:34;9.40;99.90
19928;DHT22;10126;50.876;4.470;2023-11-18T09:07:36;9.40;99.90
19928;DHT22;10126;50.876;4.470;2023-11-18T09:09:38;9.30;99.90
19928;DHT22;10126;50.876;4.470;2023-11-18T09:11:40;9.20;99.90
19928;DHT22;10126;50.876;4.470;2023-11-18T09:13:49;9.20;99.90
19928;DHT22;10126;50.876;4.470;2023-11-18T09:16:05;9.30;99.90
19928;DHT22;10126;50.876;4.470;2023-11-18T09:18:08;9.20;99.90
19928;DHT22;10126;50.876;4.470;2023-11-18T09:20:11;9.40;99.90
19928;DHT22;10126;50.876;4.470;2023-11-18T09:22:13;9.30;99.90
19928;DHT22;10126;50.876;4.470;2023-11-18T09:24:15;9.20;99.90
19928;DHT22;10126;50.876;4.470;2023-11-18T09:26:20;9.30;99.90
19928;DHT22;10126;50.876;4.470;2023-11-18T09:28:23;9.50;99.90
19928;DHT22;10126;50.876;4.470;2023-11-18T09:30:24;9.40;99.90
19928;DHT22;10126;50.876;4.470;2023-11-18T09:32:25;9.30;99.90
19928;DHT22;10126;50.876;4.470;2023-11-18T09:34:26;9.30;99.90
19928;DHT22;10126;50.876;4.470;2023-11-18T09:36:33;9.30;99.90
19928;DHT22;10126;50.876;4.470;2023-11-18T09:38:35;9.40;99.90
19928;DHT22;10126;50.876;4.470;2023-11-18T09:40:38;9.30;99.90
19928;DHT22;10126;50.876;4.470;2023-11-18T09:42:43;9.30;99.90
19928;DHT22;10126;50.876;4.470;2023-11-18T09:44:44;9.40;99.90
19928;DHT22;10126;50.876;4.470;2023-11-18T09:46:50;9.30;99.90
19928;DHT22;10126;50.876;4.470;2023-11-18T09:49:27;9.30;99.90
19928;DHT22;10126;50.876;4.470;2023-11-18T09:51:39;9.30;99.90
19928;DHT22;10126;50.876;4.470;2023-11-18T09:53:42;9.30;99.90
19928;DHT22;10126;50.876;4.470;2023-11-18T09:55:50;9.20;99.90
19928;DHT22;10126;50.876;4.470;2023-11-18T09:58:02;9.30;99.90
19928;DHT22;10126;50.876;4.470;2023-11-18T10:00:05;9.20;99.90
19928;DHT22;10126;50.876;4.470;2023-11-18T10:02:29;9.50;99.90
19928;DHT22;10126;50.876;4.470;2023-11-18T10:04:31;9.50;99.90
19928;DHT22;10126;50.876;4.470;2023-11-18T10:06:34;9.60;99.90
19928;DHT22;10126;50.876;4.470;2023-11-18T10:08:35;9.60;99.90
19928;DHT22;10126;50.876;4.470;2023-11-18T10:10:38;9.50;99.90
19928;DHT22;10126;50.876;4.470;2023-11-18T10:12:47;9.50;99.90
19928;DHT22;10126;50.876;4.470;2023-11-18T10:14:52;9.70;99.90
19928;DHT22;10126;50.876;4.470;2023-11-18T10:16:53;9.70;99.90
19928;DHT22;10126;50.876;4.470;2023-11-18T10:18:54;9.70;99.90
19928;DHT22;10126;50.876;4.470;2023-11-18T10:21:01;9.60;99.90
19928;DHT22;10126;50.876;4.470;2023-11-18T10:23:08;9.40;99.90
19928;DHT22;10126;50.876;4.470;2023-11-18T10:25:10;9.50;99.90
19928;DHT22;10126;50.876;4.470;2023-11-18T10:27:14;9.50;99.90
19928;DHT22;10126;50.876;4.470;2023-11-18T10:29:15;9.50;99.90
19928;DHT22;10126;50.876;4.470;2023-11-18T10:31:19;9.50;99.90
19928;DHT22;10126;50.876;4.470;2023-11-18T10:33:20;9.40;99.90
19928;DHT22;10126;50.876;4.470;2023-11-18T10:35:21;9.40;99.90
19928;DHT22;10126;50.876;4.470;2023-11-18T10:37:22;9.50;99.90
19928;DHT22;10126;50.876;4.470;2023-11-18T10:39:28;9.40;99.90
19928;DHT22;10126;50.876;4.470;2023-11-18T10:41:31;9.40;99.90
19928;DHT22;10126;50.876;4.470;2023-11-18T10:43:36;9.40;99.90
19928;DHT22;10126;50.876;4.470;2023-11-18T10:45:37;9.50;99.90
19928;DHT22;10126;50.876;4.470;2023-11-18T10:47:43;9.50;99.90
19928;DHT22;10126;50.876;4.470;2023-11-18T10:49:43;9.50;99.90
19928;DHT22;10126;50.876;4.470;2023-11-18T10:51:44;9.60;99.90
19928;DHT22;10126;50.876;4.470;2023-11-18T10:53:48;9.60;99.90
19928;DHT22;10126;50.876;4.470;2023-11-18T10:56:05;9.60;99.90
19928;DHT22;10126;50.876;4.470;2023-11-18T10:58:06;9.60;99.90
19928;DHT22;10126;50.876;4.470;2023-11-18T11:00:11;9.60;99.90
19928;DHT22;10126;50.876;4.470;2023-11-18T11:02:18;9.80;99.90
19928;DHT22;10126;50.876;4.470;2023-11-18T11:04:21;9.80;99.90
19928;DHT22;10126;50.876;4.470;2023-11-18T11:06:26;9.80;99.90
19928;DHT22;10126;50.876;4.470;2023-11-18T11:08:27;9.70;99.90
19928;DHT22;10126;50.876;4.470;2023-11-18T11:10:29;9.60;99.90
19928;DHT22;10126;50.876;4.470;2023-11-18T11:12:37;9.60;99.90
19928;DHT22;10126;50.876;4.470;2023-11-18T11:14:50;9.70;99.90
19928;DHT22;10126;50.876;4.470;2023-11-18T11:16:59;9.70;99.90
19928;DHT22;10126;50.876;4.470;2023-11-18T11:19:04;9.60;99.90
19928;DHT22;10126;50.876;4.470;2023-11-18T11:21:15;9.60;99.90
19928;DHT22;10126;50.876;4.470;2023-11-18T11:23:42;9.60;99.90
19928;DHT22;10126;50.876;4.470;2023-11-18T11:26:13;9.60;99.90
19928;DHT22;10126;50.876;4.470;2023-11-18T11:28:22;9.60;99.90
19928;DHT22;10126;50.876;4.470;2023-11-18T11:30:28;9.60;99.90
19928;DHT22;10126;50.876;4.470;2023-11-18T11:32:57;9.70;99.90
19928;DHT22;10126;50.876;4.470;2023-11-18T11:35:02;9.60;99.90
19928;DHT22;10126;50.876;4.470;2023-11-18T11:37:08;9.60;99.90
19928;DHT22;10126;50.876;4.470;2023-11-18T11:39:11;9.60;99.90
19928;DHT22;10126;50.876;4.470;2023-11-18T11:41:15;9.70;99.90
19928;DHT22;10126;50.876;4.470;2023-11-18T11:43:20;9.70;99.90
19928;DHT22;10126;50.876;4.470;2023-11-18T11:45:23;9.80;99.90
19928;DHT22;10126;50.876;4.470;2023-11-18T11:47:29;9.70;99.90
19928;DHT22;10126;50.876;4.470;2023-11-18T11:49:44;9.90;99.90
19928;DHT22;10126;50.876;4.470;2023-11-18T11:51:52;9.80;99.90
19928;DHT22;10126;50.876;4.470;2023-11-18T11:54:04;9.80;99.90
19928;DHT22;10126;50.876;4.470;2023-11-18T11:56:17;9.90;99.90
19928;DHT22;10126;50.876;4.470;2023-11-18T11:58:35;10.00;99.90
19928;DHT22;10126;50.876;4.470;2023-11-18T12:00:38;10.00;99.90
19928;DHT22;10126;50.876;4.470;2023-11-18T12:02:49;10.00;99.90
19928;DHT22;10126;50.876;4.470;2023-11-18T12:04:51;9.80;99.90
19928;DHT22;10126;50.876;4.470;2023-11-18T12:06:54;9.90;99.90
19928;DHT22;10126;50.876;4.470;2023-11-18T12:08:56;9.90;99.90
19928;DHT22;10126;50.876;4.470;2023-11-18T12:10:57;9.80;99.90
19928;DHT22;10126;50.876;4.470;2023-11-18T12:13:08;9.70;99.90
19928;DHT22;10126;50.876;4.470;2023-11-18T12:23:05;9.80;99.90
19928;DHT22;10126;50.876;4.470;2023-11-18T12:27:44;9.70;99.90
19928;DHT22;10126;50.876;4.470;2023-11-18T12:29:51;9.60;99.90
19928;DHT22;10126;50.876;4.470;2023-11-18T12:31:54;9.60;99.90
19928;DHT22;10126;50.876;4.470;2023-11-18T12:40:58;9.70;99.90
19928;DHT22;10126;50.876;4.470;2023-11-18T12:43:03;9.60;99.90
19928;DHT22;10126;50.876;4.470;2023-11-18T12:47:38;9.70;99.90
19928;DHT22;10126;50.876;4.470;2023-11-18T12:49:41;9.70;99.90
19928;DHT22;10126;50.876;4.470;2023-11-18T12:51:43;9.70;99.90
19928;DHT22;10126;50.876;4.470;2023-11-18T12:53:49;9.60;99.90
19928;DHT22;10126;50.876;4.470;2023-11-18T12:55:54;9.70;99.90
19928;DHT22;10126;50.876;4.470;2023-11-18T12:57:54;9.70;99.90
19928;DHT22;10126;50.876;4.470;2023-11-18T12:59:55;9.60;99.90
19928;DHT22;10126;50.876;4.470;2023-11-18T13:01:56;9.60;99.90
19928;DHT22;10126;50.876;4.470;2023-11-18T13:04:04;9.70;99.90
19928;DHT22;10126;50.876;4.470;2023-11-18T13:06:05;9.70;99.90
19928;DHT22;10126;50.876;4.470;2023-11-18T13:08:06;9.70;99.90
19928;DHT22;10126;50.876;4.470;2023-11-18T13:10:08;9.70;99.90
19928;DHT22;10126;50.876;4.470;2023-11-18T13:12:08;9.70;99.90
